Terminal Aerodrome Forecast
Issued by NWS Springfield, MO

Home | Current Version | Previous Version | Text Only | Print | Product List | Glossary On
Versions: 1 2 3 4 5 6 7 8 9 10 11 12 13 14 15 16 17 18 19 20 21
000
FTUS43 KSGF 272300
TAFSGF
TAF
KSGF 272334Z 2800/2824 12009KT P6SM OVC060
     FM281700 15009KT 3SM -SN OVC030
     FM282200 12007KT 1 1/2SM -SN BR OVC010=

USA.gov is the U.S. government's official web portal to all federal, state and local government web resources and services.